sensor_id;sensor_type;location;lat;lon;timestamp;P1;P2;P0
72023;PMS5003;59889;50.700;5.440;2023-03-23T00:00:48;8;8;
72023;PMS5003;59889;50.700;5.440;2023-03-23T00:03:13;8;8;
72023;PMS5003;59889;50.700;5.440;2023-03-23T00:05:39;10;9;
72023;PMS5003;59889;50.700;5.440;2023-03-23T00:08:03;9;9;
72023;PMS5003;59889;50.700;5.440;2023-03-23T00:10:29;7;7;
72023;PMS5003;59889;50.700;5.440;2023-03-23T00:12:54;10;10;
72023;PMS5003;59889;50.700;5.440;2023-03-23T00:15:19;9;9;
72023;PMS5003;59889;50.700;5.440;2023-03-23T00:17:44;7;7;
72023;PMS5003;59889;50.700;5.440;2023-03-23T00:20:09;8;8;
72023;PMS5003;59889;50.700;5.440;2023-03-23T00:22:34;8;8;
72023;PMS5003;59889;50.700;5.440;2023-03-23T00:24:59;8;6;
72023;PMS5003;59889;50.700;5.440;2023-03-23T00:27:24;9;9;
72023;PMS5003;59889;50.700;5.440;2023-03-23T00:29:49;9;9;
72023;PMS5003;59889;50.700;5.440;2023-03-23T00:32:14;7;7;
72023;PMS5003;59889;50.700;5.440;2023-03-23T00:34:40;9;8;
72023;PMS5003;59889;50.700;5.440;2023-03-23T00:37:05;8;8;
72023;PMS5003;59889;50.700;5.440;2023-03-23T00:39:30;8;8;
72023;PMS5003;59889;50.700;5.440;2023-03-23T00:41:55;7;7;
72023;PMS5003;59889;50.700;5.440;2023-03-23T00:44:20;6;6;
72023;PMS5003;59889;50.700;5.440;2023-03-23T00:46:46;8;8;
72023;PMS5003;59889;50.700;5.440;2023-03-23T00:49:11;8;8;
72023;PMS5003;59889;50.700;5.440;2023-03-23T00:51:35;7;6;
72023;PMS5003;59889;50.700;5.440;2023-03-23T00:54:00;8;8;
72023;PMS5003;59889;50.700;5.440;2023-03-23T00:56:25;8;8;
72023;PMS5003;59889;50.700;5.440;2023-03-23T00:58:50;9;9;
72023;PMS5003;59889;50.700;5.440;2023-03-23T01:01:16;8;8;
72023;PMS5003;59889;50.700;5.440;2023-03-23T01:03:41;8;8;
72023;PMS5003;59889;50.700;5.440;2023-03-23T01:06:07;7;7;
72023;PMS5003;59889;50.700;5.440;2023-03-23T01:08:31;8;8;
72023;PMS5003;59889;50.700;5.440;2023-03-23T01:11:01;6;5;
72023;PMS5003;59889;50.700;5.440;2023-03-23T01:13:21;10;9;
72023;PMS5003;59889;50.700;5.440;2023-03-23T01:15:46;8;7;
72023;PMS5003;59889;50.700;5.440;2023-03-23T01:18:11;7;7;
72023;PMS5003;59889;50.700;5.440;2023-03-23T01:20:36;7;7;
72023;PMS5003;59889;50.700;5.440;2023-03-23T01:23:01;7;7;
72023;PMS5003;59889;50.700;5.440;2023-03-23T01:25:27;7;7;
72023;PMS5003;59889;50.700;5.440;2023-03-23T01:27:51;7;7;
72023;PMS5003;59889;50.700;5.440;2023-03-23T01:30:17;7;7;
72023;PMS5003;59889;50.700;5.440;2023-03-23T01:32:42;9;9;
72023;PMS5003;59889;50.700;5.440;2023-03-23T01:35:07;7;7;
72023;PMS5003;59889;50.700;5.440;2023-03-23T01:37:32;8;8;
72023;PMS5003;59889;50.700;5.440;2023-03-23T01:39:57;7;7;
72023;PMS5003;59889;50.700;5.440;2023-03-23T01:42:22;7;7;
72023;PMS5003;59889;50.700;5.440;2023-03-23T01:47:12;5;5;
72023;PMS5003;59889;50.700;5.440;2023-03-23T01:49:37;9;9;
72023;PMS5003;59889;50.700;5.440;2023-03-23T01:52:04;8;7;
72023;PMS5003;59889;50.700;5.440;2023-03-23T01:54:28;5;5;
72023;PMS5003;59889;50.700;5.440;2023-03-23T01:56:53;6;6;
72023;PMS5003;59889;50.700;5.440;2023-03-23T01:59:18;8;7;
72023;PMS5003;59889;50.700;5.440;2023-03-23T02:01:43;9;9;
72023;PMS5003;59889;50.700;5.440;2023-03-23T02:04:08;8;8;
72023;PMS5003;59889;50.700;5.440;2023-03-23T02:06:33;7;7;
72023;PMS5003;59889;50.700;5.440;2023-03-23T02:08:58;6;6;
72023;PMS5003;59889;50.700;5.440;2023-03-23T02:11:23;6;6;
72023;PMS5003;59889;50.700;5.440;2023-03-23T02:13:48;8;6;
72023;PMS5003;59889;50.700;5.440;2023-03-23T02:16:14;8;7;
72023;PMS5003;59889;50.700;5.440;2023-03-23T02:18:41;6;6;
72023;PMS5003;59889;50.700;5.440;2023-03-23T02:23:34;7;6;
72023;PMS5003;59889;50.700;5.440;2023-03-23T02:25:56;7;7;
72023;PMS5003;59889;50.700;5.440;2023-03-23T02:28:26;6;6;
72023;PMS5003;59889;50.700;5.440;2023-03-23T02:30:47;9;7;
72023;PMS5003;59889;50.700;5.440;2023-03-23T02:33:21;7;7;
72023;PMS5003;59889;50.700;5.440;2023-03-23T02:35:34;7;7;
72023;PMS5003;59889;50.700;5.440;2023-03-23T02:37:59;6;6;
72023;PMS5003;59889;50.700;5.440;2023-03-23T02:40:25;6;6;
72023;PMS5003;59889;50.700;5.440;2023-03-23T02:42:50;5;5;
72023;PMS5003;59889;50.700;5.440;2023-03-23T02:45:14;7;6;
72023;PMS5003;59889;50.700;5.440;2023-03-23T02:47:39;4;4;
72023;PMS5003;59889;50.700;5.440;2023-03-23T02:50:05;5;5;
72023;PMS5003;59889;50.700;5.440;2023-03-23T02:52:30;7;7;
72023;PMS5003;59889;50.700;5.440;2023-03-23T02:54:55;5;4;
72023;PMS5003;59889;50.700;5.440;2023-03-23T02:57:20;7;7;
72023;PMS5003;59889;50.700;5.440;2023-03-23T02:59:45;6;6;
72023;PMS5003;59889;50.700;5.440;2023-03-23T03:02:11;6;6;
72023;PMS5003;59889;50.700;5.440;2023-03-23T03:04:35;7;7;
72023;PMS5003;59889;50.700;5.440;2023-03-23T03:07:04;6;6;
72023;PMS5003;59889;50.700;5.440;2023-03-23T03:09:26;6;6;
72023;PMS5003;59889;50.700;5.440;2023-03-23T03:11:50;6;6;
72023;PMS5003;59889;50.700;5.440;2023-03-23T03:14:18;4;4;
72023;PMS5003;59889;50.700;5.440;2023-03-23T03:16:40;5;5;
72023;PMS5003;59889;50.700;5.440;2023-03-23T03:19:06;5;5;
72023;PMS5003;59889;50.700;5.440;2023-03-23T03:21:31;9;7;
72023;PMS5003;59889;50.700;5.440;2023-03-23T03:23:56;5;5;
72023;PMS5003;59889;50.700;5.440;2023-03-23T03:26:20;5;5;
72023;PMS5003;59889;50.700;5.440;2023-03-23T03:28:47;6;5;
72023;PMS5003;59889;50.700;5.440;2023-03-23T03:31:11;7;6;
72023;PMS5003;59889;50.700;5.440;2023-03-23T03:33:36;5;5;
72023;PMS5003;59889;50.700;5.440;2023-03-23T03:36:02;6;6;
72023;PMS5003;59889;50.700;5.440;2023-03-23T03:38:26;5;5;
72023;PMS5003;59889;50.700;5.440;2023-03-23T03:40:51;5;5;
72023;PMS5003;59889;50.700;5.440;2023-03-23T03:43:16;6;6;
72023;PMS5003;59889;50.700;5.440;2023-03-23T03:45:41;5;5;
72023;PMS5003;59889;50.700;5.440;2023-03-23T03:48:06;6;6;
72023;PMS5003;59889;50.700;5.440;2023-03-23T03:50:31;4;4;
72023;PMS5003;59889;50.700;5.440;2023-03-23T03:52:56;5;5;
72023;PMS5003;59889;50.700;5.440;2023-03-23T03:55:21;6;6;
72023;PMS5003;59889;50.700;5.440;2023-03-23T03:57:47;5;5;
72023;PMS5003;59889;50.700;5.440;2023-03-23T04:00:12;5;5;
72023;PMS5003;59889;50.700;5.440;2023-03-23T04:02:37;4;4;
72023;PMS5003;59889;50.700;5.440;2023-03-23T04:05:02;5;5;
72023;PMS5003;59889;50.700;5.440;2023-03-23T04:07:27;5;5;
72023;PMS5003;59889;50.700;5.440;2023-03-23T04:09:52;5;5;
72023;PMS5003;59889;50.700;5.440;2023-03-23T04:12:17;5;5;
72023;PMS5003;59889;50.700;5.440;2023-03-23T04:14:42;4;4;
72023;PMS5003;59889;50.700;5.440;2023-03-23T04:17:07;4;4;
72023;PMS5003;59889;50.700;5.440;2023-03-23T04:19:32;4;4;
72023;PMS5003;59889;50.700;5.440;2023-03-23T04:21:57;6;6;
72023;PMS5003;59889;50.700;5.440;2023-03-23T04:24:22;4;4;
72023;PMS5003;59889;50.700;5.440;2023-03-23T04:26:47;6;5;
72023;PMS5003;59889;50.700;5.440;2023-03-23T04:29:13;4;4;
72023;PMS5003;59889;50.700;5.440;2023-03-23T04:31:38;5;5;
72023;PMS5003;59889;50.700;5.440;2023-03-23T04:34:03;4;4;
72023;PMS5003;59889;50.700;5.440;2023-03-23T04:36:28;5;5;
72023;PMS5003;59889;50.700;5.440;2023-03-23T04:38:53;6;5;
72023;PMS5003;59889;50.700;5.440;2023-03-23T04:41:18;6;6;
72023;PMS5003;59889;50.700;5.440;2023-03-23T04:43:43;4;4;
72023;PMS5003;59889;50.700;5.440;2023-03-23T04:46:08;3;3;
72023;PMS5003;59889;50.700;5.440;2023-03-23T04:48:33;4;4;
72023;PMS5003;59889;50.700;5.440;2023-03-23T04:51:00;5;5;
72023;PMS5003;59889;50.700;5.440;2023-03-23T04:53:23;5;5;
72023;PMS5003;59889;50.700;5.440;2023-03-23T04:55:48;4;4;
72023;PMS5003;59889;50.700;5.440;2023-03-23T04:58:14;6;4;
72023;PMS5003;59889;50.700;5.440;2023-03-23T05:00:38;5;5;
72023;PMS5003;59889;50.700;5.440;2023-03-23T05:03:04;3;3;
72023;PMS5003;59889;50.700;5.440;2023-03-23T05:05:29;4;4;
72023;PMS5003;59889;50.700;5.440;2023-03-23T05:07:54;4;4;
72023;PMS5003;59889;50.700;5.440;2023-03-23T05:10:19;6;5;
72023;PMS5003;59889;50.700;5.440;2023-03-23T05:12:44;7;6;
72023;PMS5003;59889;50.700;5.440;2023-03-23T05:15:09;5;5;
72023;PMS5003;59889;50.700;5.440;2023-03-23T05:17:34;8;7;
72023;PMS5003;59889;50.700;5.440;2023-03-23T05:19:59;6;5;
72023;PMS5003;59889;50.700;5.440;2023-03-23T05:22:26;6;6;
72023;PMS5003;59889;50.700;5.440;2023-03-23T05:24:49;5;5;
72023;PMS5003;59889;50.700;5.440;2023-03-23T05:27:15;6;5;
72023;PMS5003;59889;50.700;5.440;2023-03-23T05:29:40;6;6;
72023;PMS5003;59889;50.700;5.440;2023-03-23T05:32:05;6;6;
72023;PMS5003;59889;50.700;5.440;2023-03-23T05:34:30;6;6;
72023;PMS5003;59889;50.700;5.440;2023-03-23T05:36:55;4;4;
72023;PMS5003;59889;50.700;5.440;2023-03-23T05:39:20;8;8;
72023;PMS5003;59889;50.700;5.440;2023-03-23T05:41:45;5;5;
72023;PMS5003;59889;50.700;5.440;2023-03-23T05:44:10;7;6;
72023;PMS5003;59889;50.700;5.440;2023-03-23T05:46:35;6;6;
72023;PMS5003;59889;50.700;5.440;2023-03-23T05:49:00;5;5;
72023;PMS5003;59889;50.700;5.440;2023-03-23T05:51:25;5;5;
72023;PMS5003;59889;50.700;5.440;2023-03-23T05:53:50;5;5;
72023;PMS5003;59889;50.700;5.440;2023-03-23T05:56:16;4;4;
72023;PMS5003;59889;50.700;5.440;2023-03-23T05:58:41;5;4;
72023;PMS5003;59889;50.700;5.440;2023-03-23T06:01:06;5;5;
72023;PMS5003;59889;50.700;5.440;2023-03-23T06:03:31;4;4;
72023;PMS5003;59889;50.700;5.440;2023-03-23T06:05:56;5;5;
72023;PMS5003;59889;50.700;5.440;2023-03-23T06:08:21;5;4;
72023;PMS5003;59889;50.700;5.440;2023-03-23T06:10:47;5;5;
72023;PMS5003;59889;50.700;5.440;2023-03-23T06:13:11;5;5;
72023;PMS5003;59889;50.700;5.440;2023-03-23T06:15:36;6;5;
72023;PMS5003;59889;50.700;5.440;2023-03-23T06:18:02;5;4;
72023;PMS5003;59889;50.700;5.440;2023-03-23T06:20:26;4;4;
72023;PMS5003;59889;50.700;5.440;2023-03-23T06:22:52;5;5;
72023;PMS5003;59889;50.700;5.440;2023-03-23T06:25:17;6;4;
72023;PMS5003;59889;50.700;5.440;2023-03-23T06:27:42;4;4;
72023;PMS5003;59889;50.700;5.440;2023-03-23T06:30:07;5;5;
72023;PMS5003;59889;50.700;5.440;2023-03-23T06:32:32;4;4;
72023;PMS5003;59889;50.700;5.440;2023-03-23T06:34:57;4;4;
72023;PMS5003;59889;50.700;5.440;2023-03-23T06:37:22;4;4;
72023;PMS5003;59889;50.700;5.440;2023-03-23T06:39:47;4;4;
72023;PMS5003;59889;50.700;5.440;2023-03-23T06:42:12;4;4;
72023;PMS5003;59889;50.700;5.440;2023-03-23T06:44:37;5;5;
72023;PMS5003;59889;50.700;5.440;2023-03-23T06:47:03;4;4;
72023;PMS5003;59889;50.700;5.440;2023-03-23T06:49:28;5;5;
72023;PMS5003;59889;50.700;5.440;2023-03-23T06:51:53;5;5;
72023;PMS5003;59889;50.700;5.440;2023-03-23T06:54:18;4;4;
72023;PMS5003;59889;50.700;5.440;2023-03-23T06:56:43;5;5;
72023;PMS5003;59889;50.700;5.440;2023-03-23T06:59:08;5;5;
72023;PMS5003;59889;50.700;5.440;2023-03-23T07:01:33;4;4;
72023;PMS5003;59889;50.700;5.440;2023-03-23T07:03:59;4;3;
72023;PMS5003;59889;50.700;5.440;2023-03-23T07:06:24;4;4;
72023;PMS5003;59889;50.700;5.440;2023-03-23T07:08:49;5;5;
72023;PMS5003;59889;50.700;5.440;2023-03-23T07:11:14;3;3;
72023;PMS5003;59889;50.700;5.440;2023-03-23T07:13:39;3;3;
72023;PMS5003;59889;50.700;5.440;2023-03-23T07:16:05;5;5;
72023;PMS5003;59889;50.700;5.440;2023-03-23T07:18:30;4;4;
72023;PMS5003;59889;50.700;5.440;2023-03-23T07:20:55;4;4;
72023;PMS5003;59889;50.700;5.440;2023-03-23T07:23:20;3;3;
72023;PMS5003;59889;50.700;5.440;2023-03-23T07:25:45;5;4;
72023;PMS5003;59889;50.700;5.440;2023-03-23T07:28:10;5;4;
72023;PMS5003;59889;50.700;5.440;2023-03-23T07:30:35;3;3;
72023;PMS5003;59889;50.700;5.440;2023-03-23T07:33:03;4;4;
72023;PMS5003;59889;50.700;5.440;2023-03-23T07:35:25;3;3;
72023;PMS5003;59889;50.700;5.440;2023-03-23T07:37:50;5;4;
72023;PMS5003;59889;50.700;5.440;2023-03-23T07:40:15;4;4;
72023;PMS5003;59889;50.700;5.440;2023-03-23T07:42:41;4;4;
72023;PMS5003;59889;50.700;5.440;2023-03-23T07:45:06;4;4;
72023;PMS5003;59889;50.700;5.440;2023-03-23T07:47:31;4;4;
72023;PMS5003;59889;50.700;5.440;2023-03-23T07:49:56;3;3;
72023;PMS5003;59889;50.700;5.440;2023-03-23T07:52:21;4;4;
72023;PMS5003;59889;50.700;5.440;2023-03-23T07:54:46;4;3;
72023;PMS5003;59889;50.700;5.440;2023-03-23T07:57:11;2;2;
72023;PMS5003;59889;50.700;5.440;2023-03-23T07:59:36;4;4;
72023;PMS5003;59889;50.700;5.440;2023-03-23T08:02:01;2;2;
72023;PMS5003;59889;50.700;5.440;2023-03-23T08:04:26;5;4;
72023;PMS5003;59889;50.700;5.440;2023-03-23T08:06:51;2;2;
72023;PMS5003;59889;50.700;5.440;2023-03-23T08:09:16;3;3;
72023;PMS5003;59889;50.700;5.440;2023-03-23T08:11:41;4;4;
72023;PMS5003;59889;50.700;5.440;2023-03-23T08:14:07;4;4;
72023;PMS5003;59889;50.700;5.440;2023-03-23T08:16:32;3;3;
72023;PMS5003;59889;50.700;5.440;2023-03-23T08:18:57;3;3;
72023;PMS5003;59889;50.700;5.440;2023-03-23T08:21:22;4;4;
72023;PMS5003;59889;50.700;5.440;2023-03-23T08:23:47;3;3;
72023;PMS5003;59889;50.700;5.440;2023-03-23T08:26:12;5;4;
72023;PMS5003;59889;50.700;5.440;2023-03-23T08:28:37;3;3;
72023;PMS5003;59889;50.700;5.440;2023-03-23T08:31:05;4;3;
72023;PMS5003;59889;50.700;5.440;2023-03-23T08:33:27;1;1;
72023;PMS5003;59889;50.700;5.440;2023-03-23T08:35:54;4;4;
72023;PMS5003;59889;50.700;5.440;2023-03-23T08:38:17;3;3;
72023;PMS5003;59889;50.700;5.440;2023-03-23T08:40:42;3;3;
72023;PMS5003;59889;50.700;5.440;2023-03-23T08:43:07;2;2;
72023;PMS5003;59889;50.700;5.440;2023-03-23T08:45:32;4;3;
72023;PMS5003;59889;50.700;5.440;2023-03-23T08:47:58;4;4;
72023;PMS5003;59889;50.700;5.440;2023-03-23T08:50:24;3;3;
72023;PMS5003;59889;50.700;5.440;2023-03-23T08:52:48;3;3;
72023;PMS5003;59889;50.700;5.440;2023-03-23T08:55:13;4;4;
72023;PMS5003;59889;50.700;5.440;2023-03-23T08:57:38;4;4;
72023;PMS5003;59889;50.700;5.440;2023-03-23T09:00:03;3;3;
72023;PMS5003;59889;50.700;5.440;2023-03-23T09:02:28;5;5;
72023;PMS5003;59889;50.700;5.440;2023-03-23T09:04:53;5;4;
72023;PMS5003;59889;50.700;5.440;2023-03-23T09:07:18;3;3;
72023;PMS5003;59889;50.700;5.440;2023-03-23T09:09:43;4;4;
72023;PMS5003;59889;50.700;5.440;2023-03-23T09:12:09;4;3;
72023;PMS5003;59889;50.700;5.440;2023-03-23T09:14:34;4;4;
72023;PMS5003;59889;50.700;5.440;2023-03-23T09:16:59;3;3;
72023;PMS5003;59889;50.700;5.440;2023-03-23T09:19:24;4;3;
72023;PMS5003;59889;50.700;5.440;2023-03-23T09:21:49;3;3;
72023;PMS5003;59889;50.700;5.440;2023-03-23T09:24:14;4;3;
72023;PMS5003;59889;50.700;5.440;2023-03-23T09:26:39;2;2;
72023;PMS5003;59889;50.700;5.440;2023-03-23T09:29:04;2;2;
72023;PMS5003;59889;50.700;5.440;2023-03-23T09:31:30;2;2;
72023;PMS5003;59889;50.700;5.440;2023-03-23T09:33:55;4;3;
72023;PMS5003;59889;50.700;5.440;2023-03-23T09:36:20;2;2;
72023;PMS5003;59889;50.700;5.440;2023-03-23T09:38:45;4;4;
72023;PMS5003;59889;50.700;5.440;2023-03-23T09:41:12;4;3;
72023;PMS5003;59889;50.700;5.440;2023-03-23T09:43:39;3;3;
72023;PMS5003;59889;50.700;5.440;2023-03-23T09:46:03;3;3;
72023;PMS5003;59889;50.700;5.440;2023-03-23T09:48:29;4;2;
72023;PMS5003;59889;50.700;5.440;2023-03-23T09:50:51;3;2;
72023;PMS5003;59889;50.700;5.440;2023-03-23T09:53:16;3;3;
72023;PMS5003;59889;50.700;5.440;2023-03-23T09:55:40;3;2;
72023;PMS5003;59889;50.700;5.440;2023-03-23T09:58:09;3;3;
72023;PMS5003;59889;50.700;5.440;2023-03-23T10:00:32;3;3;
72023;PMS5003;59889;50.700;5.440;2023-03-23T10:02:59;3;3;
72023;PMS5003;59889;50.700;5.440;2023-03-23T10:05:27;3;2;
72023;PMS5003;59889;50.700;5.440;2023-03-23T10:07:46;3;3;
72023;PMS5003;59889;50.700;5.440;2023-03-23T10:10:12;3;3;
72023;PMS5003;59889;50.700;5.440;2023-03-23T10:12:36;3;3;
72023;PMS5003;59889;50.700;5.440;2023-03-23T10:15:05;3;3;
72023;PMS5003;59889;50.700;5.440;2023-03-23T10:17:27;3;3;
72023;PMS5003;59889;50.700;5.440;2023-03-23T10:19:52;3;3;
72023;PMS5003;59889;50.700;5.440;2023-03-23T10:22:17;3;3;
72023;PMS5003;59889;50.700;5.440;2023-03-23T10:24:43;2;2;
72023;PMS5003;59889;50.700;5.440;2023-03-23T10:27:10;4;3;
72023;PMS5003;59889;50.700;5.440;2023-03-23T10:29:33;3;3;
72023;PMS5003;59889;50.700;5.440;2023-03-23T10:31:58;2;2;
72023;PMS5003;59889;50.700;5.440;2023-03-23T10:34:22;2;2;
72023;PMS5003;59889;50.700;5.440;2023-03-23T10:36:51;2;2;
72023;PMS5003;59889;50.700;5.440;2023-03-23T10:39:13;2;2;
72023;PMS5003;59889;50.700;5.440;2023-03-23T10:41:37;2;1;
72023;PMS5003;59889;50.700;5.440;2023-03-23T10:44:04;2;2;
72023;PMS5003;59889;50.700;5.440;2023-03-23T10:46:31;3;1;
72023;PMS5003;59889;50.700;5.440;2023-03-23T10:48:52;4;3;
72023;PMS5003;59889;50.700;5.440;2023-03-23T10:51:18;3;3;
72023;PMS5003;59889;50.700;5.440;2023-03-23T10:53:43;4;4;
72023;PMS5003;59889;50.700;5.440;2023-03-23T10:58:33;3;3;
72023;PMS5003;59889;50.700;5.440;2023-03-23T11:00:57;2;2;
72023;PMS5003;59889;50.700;5.440;2023-03-23T11:03:24;2;2;
72023;PMS5003;59889;50.700;5.440;2023-03-23T11:05:48;3;3;
72023;PMS5003;59889;50.700;5.440;2023-03-23T11:08:13;3;3;
72023;PMS5003;59889;50.700;5.440;2023-03-23T11:10:38;2;2;
72023;PMS5003;59889;50.700;5.440;2023-03-23T11:13:03;2;2;
72023;PMS5003;59889;50.700;5.440;2023-03-23T11:15:29;3;2;
72023;PMS5003;59889;50.700;5.440;2023-03-23T11:17:55;2;2;
72023;PMS5003;59889;50.700;5.440;2023-03-23T11:20:19;2;2;
72023;PMS5003;59889;50.700;5.440;2023-03-23T11:22:43;2;2;
72023;PMS5003;59889;50.700;5.440;2023-03-23T11:25:09;2;2;
72023;PMS5003;59889;50.700;5.440;2023-03-23T11:27:33;2;2;
72023;PMS5003;59889;50.700;5.440;2023-03-23T11:29:59;2;2;
72023;PMS5003;59889;50.700;5.440;2023-03-23T11:32:24;2;2;
72023;PMS5003;59889;50.700;5.440;2023-03-23T11:34:48;1;1;
72023;PMS5003;59889;50.700;5.440;2023-03-23T11:37:14;3;3;
72023;PMS5003;59889;50.700;5.440;2023-03-23T11:44:31;2;2;
72023;PMS5003;59889;50.700;5.440;2023-03-23T11:46:57;3;3;
72023;PMS5003;59889;50.700;5.440;2023-03-23T11:49:22;2;2;
72023;PMS5003;59889;50.700;5.440;2023-03-23T11:51:45;3;3;
72023;PMS5003;59889;50.700;5.440;2023-03-23T11:54:09;2;2;
72023;PMS5003;59889;50.700;5.440;2023-03-23T11:56:34;3;3;
72023;PMS5003;59889;50.700;5.440;2023-03-23T11:58:59;1;1;
72023;PMS5003;59889;50.700;5.440;2023-03-23T12:01:28;3;3;
72023;PMS5003;59889;50.700;5.440;2023-03-23T12:03:54;1;1;
72023;PMS5003;59889;50.700;5.440;2023-03-23T12:06:15;2;2;
72023;PMS5003;59889;50.700;5.440;2023-03-23T12:08:44;3;3;
72023;PMS5003;59889;50.700;5.440;2023-03-23T12:11:07;1;1;
72023;PMS5003;59889;50.700;5.440;2023-03-23T12:13:33;3;3;
72023;PMS5003;59889;50.700;5.440;2023-03-23T12:15:56;2;2;
72023;PMS5003;59889;50.700;5.440;2023-03-23T12:18:22;2;2;
72023;PMS5003;59889;50.700;5.440;2023-03-23T12:20:49;3;3;
72023;PMS5003;59889;50.700;5.440;2023-03-23T12:23:14;1;1;
72023;PMS5003;59889;50.700;5.440;2023-03-23T12:25:43;2;2;
72023;PMS5003;59889;50.700;5.440;2023-03-23T12:28:01;3;3;
72023;PMS5003;59889;50.700;5.440;2023-03-23T12:30:29;2;2;
72023;PMS5003;59889;50.700;5.440;2023-03-23T12:32:54;1;1;
72023;PMS5003;59889;50.700;5.440;2023-03-23T12:35:20;2;2;
72023;PMS5003;59889;50.700;5.440;2023-03-23T12:37:44;2;2;
72023;PMS5003;59889;50.700;5.440;2023-03-23T12:40:08;1;1;
72023;PMS5003;59889;50.700;5.440;2023-03-23T12:42:33;2;2;
72023;PMS5003;59889;50.700;5.440;2023-03-23T12:44:57;2;2;
72023;PMS5003;59889;50.700;5.440;2023-03-23T12:47:25;2;2;
72023;PMS5003;59889;50.700;5.440;2023-03-23T12:49:46;2;2;
72023;PMS5003;59889;50.700;5.440;2023-03-23T12:52:13;1;1;
72023;PMS5003;59889;50.700;5.440;2023-03-23T12:54:37;2;2;
72023;PMS5003;59889;50.700;5.440;2023-03-23T12:57:02;1;1;
72023;PMS5003;59889;50.700;5.440;2023-03-23T12:59:28;3;2;
72023;PMS5003;59889;50.700;5.440;2023-03-23T13:01:52;2;2;
72023;PMS5003;59889;50.700;5.440;2023-03-23T13:04:17;2;2;
72023;PMS5003;59889;50.700;5.440;2023-03-23T13:06:42;2;1;
72023;PMS5003;59889;50.700;5.440;2023-03-23T13:09:09;2;2;
72023;PMS5003;59889;50.700;5.440;2023-03-23T13:11:32;3;2;
72023;PMS5003;59889;50.700;5.440;2023-03-23T13:13:59;2;2;
72023;PMS5003;59889;50.700;5.440;2023-03-23T13:16:25;2;2;
72023;PMS5003;59889;50.700;5.440;2023-03-23T13:18:48;2;2;
72023;PMS5003;59889;50.700;5.440;2023-03-23T13:21:14;2;2;
72023;PMS5003;59889;50.700;5.440;2023-03-23T13:23:37;2;2;
72023;PMS5003;59889;50.700;5.440;2023-03-23T13:26:02;1;1;
72023;PMS5003;59889;50.700;5.440;2023-03-23T13:28:27;2;2;
72023;PMS5003;59889;50.700;5.440;2023-03-23T13:30:53;2;2;
72023;PMS5003;59889;50.700;5.440;2023-03-23T13:33:17;2;2;
72023;PMS5003;59889;50.700;5.440;2023-03-23T13:35:43;2;2;
72023;PMS5003;59889;50.700;5.440;2023-03-23T13:38:16;1;1;
72023;PMS5003;59889;50.700;5.440;2023-03-23T13:40:32;2;2;
72023;PMS5003;59889;50.700;5.440;2023-03-23T13:42:58;2;2;
72023;PMS5003;59889;50.700;5.440;2023-03-23T13:45:23;2;2;
72023;PMS5003;59889;50.700;5.440;2023-03-23T13:47:47;2;2;
72023;PMS5003;59889;50.700;5.440;2023-03-23T13:50:23;1;1;
72023;PMS5003;59889;50.700;5.440;2023-03-23T13:52:38;3;3;
72023;PMS5003;59889;50.700;5.440;2023-03-23T13:57:34;2;2;
72023;PMS5003;59889;50.700;5.440;2023-03-23T13:59:56;2;2;
72023;PMS5003;59889;50.700;5.440;2023-03-23T14:04:43;2;2;
72023;PMS5003;59889;50.700;5.440;2023-03-23T14:07:09;2;2;
72023;PMS5003;59889;50.700;5.440;2023-03-23T14:09:36;2;2;
72023;PMS5003;59889;50.700;5.440;2023-03-23T14:11:58;2;1;
72023;PMS5003;59889;50.700;5.440;2023-03-23T14:14:25;2;2;
72023;PMS5003;59889;50.700;5.440;2023-03-23T14:16:49;2;1;
72023;PMS5003;59889;50.700;5.440;2023-03-23T14:19:14;0;0;
72023;PMS5003;59889;50.700;5.440;2023-03-23T14:21:39;3;3;
72023;PMS5003;59889;50.700;5.440;2023-03-23T14:24:05;0;0;
72023;PMS5003;59889;50.700;5.440;2023-03-23T14:26:28;2;2;
72023;PMS5003;59889;50.700;5.440;2023-03-23T14:28:53;2;2;
72023;PMS5003;59889;50.700;5.440;2023-03-23T14:31:19;3;3;
72023;PMS5003;59889;50.700;5.440;2023-03-23T14:33:43;2;2;
72023;PMS5003;59889;50.700;5.440;2023-03-23T14:36:09;2;2;
72023;PMS5003;59889;50.700;5.440;2023-03-23T14:38:34;1;1;
72023;PMS5003;59889;50.700;5.440;2023-03-23T14:40:59;2;2;
72023;PMS5003;59889;50.700;5.440;2023-03-23T14:43:24;0;0;
72023;PMS5003;59889;50.700;5.440;2023-03-23T14:45:50;2;2;
72023;PMS5003;59889;50.700;5.440;2023-03-23T14:48:14;2;2;
72023;PMS5003;59889;50.700;5.440;2023-03-23T14:50:40;3;2;
72023;PMS5003;59889;50.700;5.440;2023-03-23T14:55:30;2;2;
72023;PMS5003;59889;50.700;5.440;2023-03-23T14:57:54;1;1;
72023;PMS5003;59889;50.700;5.440;2023-03-23T15:00:21;2;2;
72023;PMS5003;59889;50.700;5.440;2023-03-23T15:02:45;2;2;
72023;PMS5003;59889;50.700;5.440;2023-03-23T15:05:10;2;2;
72023;PMS5003;59889;50.700;5.440;2023-03-23T15:07:35;2;2;
72023;PMS5003;59889;50.700;5.440;2023-03-23T15:10:00;1;1;
72023;PMS5003;59889;50.700;5.440;2023-03-23T15:12:26;1;1;
72023;PMS5003;59889;50.700;5.440;2023-03-23T15:14:50;2;1;
72023;PMS5003;59889;50.700;5.440;2023-03-23T15:17:18;1;1;
72023;PMS5003;59889;50.700;5.440;2023-03-23T15:19:40;2;2;
72023;PMS5003;59889;50.700;5.440;2023-03-23T15:22:06;2;1;
72023;PMS5003;59889;50.700;5.440;2023-03-23T15:24:31;3;2;
72023;PMS5003;59889;50.700;5.440;2023-03-23T15:29:20;1;1;
72023;PMS5003;59889;50.700;5.440;2023-03-23T15:31:46;4;4;
72023;PMS5003;59889;50.700;5.440;2023-03-23T15:34:12;2;2;
72023;PMS5003;59889;50.700;5.440;2023-03-23T15:36:35;2;1;
72023;PMS5003;59889;50.700;5.440;2023-03-23T15:39:01;3;2;
72023;PMS5003;59889;50.700;5.440;2023-03-23T15:41:27;2;2;
72023;PMS5003;59889;50.700;5.440;2023-03-23T15:43:52;2;2;
72023;PMS5003;59889;50.700;5.440;2023-03-23T15:46:19;1;1;
72023;PMS5003;59889;50.700;5.440;2023-03-23T15:48:46;0;0;
72023;PMS5003;59889;50.700;5.440;2023-03-23T15:51:06;1;1;
72023;PMS5003;59889;50.700;5.440;2023-03-23T15:53:32;3;2;
72023;PMS5003;59889;50.700;5.440;2023-03-23T15:55:58;3;3;
72023;PMS5003;59889;50.700;5.440;2023-03-23T15:58:21;4;3;
72023;PMS5003;59889;50.700;5.440;2023-03-23T16:00:46;5;5;
72023;PMS5003;59889;50.700;5.440;2023-03-23T16:03:12;6;5;
72023;PMS5003;59889;50.700;5.440;2023-03-23T16:05:36;8;6;
72023;PMS5003;59889;50.700;5.440;2023-03-23T16:08:01;9;6;
72023;PMS5003;59889;50.700;5.440;2023-03-23T16:10:27;3;3;
72023;PMS5003;59889;50.700;5.440;2023-03-23T16:12:52;7;7;
72023;PMS5003;59889;50.700;5.440;2023-03-23T16:15:17;7;7;
72023;PMS5003;59889;50.700;5.440;2023-03-23T16:17:42;9;9;
72023;PMS5003;59889;50.700;5.440;2023-03-23T16:20:10;10;9;
72023;PMS5003;59889;50.700;5.440;2023-03-23T16:22:32;11;10;
72023;PMS5003;59889;50.700;5.440;2023-03-23T16:24:57;10;10;
72023;PMS5003;59889;50.700;5.440;2023-03-23T16:27:23;10;9;
72023;PMS5003;59889;50.700;5.440;2023-03-23T16:29:48;10;9;
72023;PMS5003;59889;50.700;5.440;2023-03-23T16:32:14;11;11;
72023;PMS5003;59889;50.700;5.440;2023-03-23T16:34:40;9;9;
72023;PMS5003;59889;50.700;5.440;2023-03-23T16:37:05;13;11;
72023;PMS5003;59889;50.700;5.440;2023-03-23T16:39:30;13;12;
72023;PMS5003;59889;50.700;5.440;2023-03-23T16:41:55;15;11;
72023;PMS5003;59889;50.700;5.440;2023-03-23T16:44:21;12;12;
72023;PMS5003;59889;50.700;5.440;2023-03-23T16:46:46;15;14;
72023;PMS5003;59889;50.700;5.440;2023-03-23T16:49:11;14;11;
72023;PMS5003;59889;50.700;5.440;2023-03-23T16:51:37;17;14;
72023;PMS5003;59889;50.700;5.440;2023-03-23T16:54:02;13;11;
72023;PMS5003;59889;50.700;5.440;2023-03-23T16:56:27;12;10;